Morning Camilla — H3LJ — position and weather

sailwx.info

Track history (hours):
 
Tides and Currents Weather Stations Pressure Air Temp Water Temp Dewpoint Dewpoint Depression Visibility Wind Speed Wind Dir Waves Ship Positions

Morning Camilla

Last reported at 2017-Sep-15 23:00 UTC. Time now 2017-Sep-26 21:46 UTC.
Position N 24°08' W 113°40'.
Warning: this ship's position is 10 days out of date.

Length 199 m; draft 9.4 m.

Type: Cargo ship. MMSI: 370299000.

Date/timePositionNaut miles runAvg speedWind from/ knotsBaromVisibWave heightAir tempDewpointWater temp
2017-Sep-15 23:00N 24°08' W 113°40'917.7
2017-Sep-15 22:30N 24°13' W 113°48'917.6
2017-Sep-15 22:00N 24°18' W 113°56'917.6
2017-Sep-15 21:30N 24°23' W 114°04'917.6
2017-Sep-15 21:00N 24°28' W 114°12'917.3
2017-Sep-15 20:30N 24°32' W 114°20'18817.4
2017-Sep-15 09:44N 26°29' W 117°03'517.2
2017-Sep-15 09:28N 26°32' W 117°07'40617.3
2017-Sep-14 10:00N 30°47' W 123°06'5517.3
2017-Sep-14 06:49N 31°22' W 123°56'517.2
2017-Sep-14 06:30N 31°25' W 124°01'52717.1
2017-Sep-12 23:40N 36°45' W 132°26'416.5
2017-Sep-12 23:27N 36°47' W 132°30'  
Track history (hours):
 
Tides and Currents Weather Stations Pressure Air Temp Water Temp Dewpoint Dewpoint Depression Visibility Wind Speed Wind Dir Waves Ship Positions

Morning Camilla

Last reported at 2017-Sep-15 23:00 UTC. Time now 2017-Sep-26 21:46 UTC.
Position N 24°08' W 113°40'.
Warning: this ship's position is 10 days out of date.

Length 199 m; draft 9.4 m.

Type: Cargo ship. MMSI: 370299000.

Date/timePositionNaut miles runAvg speedWind from/ knotsBaromVisibWave heightAir tempDewpointWater temp
2017-Sep-15 23:00N 24°08' W 113°40'917.7
2017-Sep-15 22:30N 24°13' W 113°48'917.6
2017-Sep-15 22:00N 24°18' W 113°56'917.6
2017-Sep-15 21:30N 24°23' W 114°04'917.6
2017-Sep-15 21:00N 24°28' W 114°12'917.3
2017-Sep-15 20:30N 24°32' W 114°20'18817.4
2017-Sep-15 09:44N 26°29' W 117°03'517.2
2017-Sep-15 09:28N 26°32' W 117°07'40617.3
2017-Sep-14 10:00N 30°47' W 123°06'5517.3
2017-Sep-14 06:49N 31°22' W 123°56'517.2
2017-Sep-14 06:30N 31°25' W 124°01'52717.1
2017-Sep-12 23:40N 36°45' W 132°26'416.5
2017-Sep-12 23:27N 36°47' W 132°30'  

Dump ship's entire track history